Time;durP1;ratioP1;P1;durP2;ratioP2;P2;SDS_P1;SDS_P2;PMS_P1;PMS_P2;Temp;Humidity;BMP_temperature;BMP_pressure;BME280_temperature;BME280_humidity;BME280_pressure;Samples;Min_cycle;Max_cycle;Signal;HPM_P1;HPM_P2
2023/04/25 00:02:17;;;;;;;3.10;1.40;;;12.60;99.90;;;;;;5053595;28;20036;-44
2023/04/25 00:04:43;;;;;;;1.90;1.33;;;12.60;99.90;;;;;;5053956;28;20021;-41
2023/04/25 00:07:09;;;;;;;3.30;1.20;;;12.60;99.90;;;;;;5052469;28;20017;-43
2023/04/25 00:09:34;;;;;;;1.40;1.20;;;12.60;99.90;;;;;;5053258;28;20031;-42
2023/04/25 00:12:01;;;;;;;3.30;1.40;;;12.60;99.90;;;;;;5052543;28;20033;-42
2023/04/25 00:14:27;;;;;;;2.13;1.25;;;12.60;99.90;;;;;;5053321;28;20017;-39
2023/04/25 00:16:54;;;;;;;3.97;1.42;;;12.60;99.90;;;;;;5052704;28;20031;-43
2023/04/25 00:19:19;;;;;;;2.85;1.40;;;12.60;99.90;;;;;;5053985;28;20044;-39
2023/04/25 00:21:46;;;;;;;2.25;1.20;;;12.60;99.90;;;;;;5052443;28;20029;-43
2023/04/25 00:24:12;;;;;;;3.80;0.90;;;12.60;99.90;;;;;;5052998;28;20024;-43
2023/04/25 00:26:38;;;;;;;2.50;1.25;;;12.60;99.90;;;;;;5052604;28;20048;-43
2023/04/25 00:29:04;;;;;;;2.67;1.20;;;12.60;99.90;;;;;;5053204;28;20475;-43
2023/04/25 00:31:30;;;;;;;1.63;1.05;;;12.60;99.90;;;;;;5052629;28;20025;-41
2023/04/25 00:33:56;;;;;;;2.92;1.20;;;12.60;99.90;;;;;;5054177;28;20040;-40
2023/04/25 00:36:21;;;;;;;2.05;1.17;;;12.60;99.90;;;;;;5051768;28;20025;-43
2023/04/25 00:38:47;;;;;;;1.85;1.25;;;12.60;99.90;;;;;;5053068;28;20033;-42
2023/04/25 00:41:13;;;;;;;1.75;1.08;;;12.60;99.90;;;;;;5052435;28;20029;-42
2023/04/25 00:43:40;;;;;;;3.72;1.27;;;12.60;99.90;;;;;;5052175;28;20499;-43
2023/04/25 00:46:05;;;;;;;1.75;1.10;;;12.60;99.90;;;;;;5051347;28;20040;-43
2023/04/25 00:48:31;;;;;;;3.33;1.20;;;12.60;99.90;;;;;;5051905;28;20471;-43
2023/04/25 00:50:58;;;;;;;2.45;1.30;;;12.60;99.90;;;;;;5052406;28;20037;-42
2023/04/25 00:53:26;;;;;;;2.97;1.30;;;12.60;99.90;;;;;;5052832;28;20036;-42
2023/04/25 00:55:53;;;;;;;2.38;1.23;;;12.60;99.90;;;;;;5051877;28;20029;-43
2023/04/25 00:58:20;;;;;;;1.73;1.10;;;12.60;99.90;;;;;;5052622;28;20033;-40
2023/04/25 01:00:47;;;;;;;2.92;1.33;;;12.60;99.90;;;;;;5052589;28;20029;-45
2023/04/25 01:03:17;;;;;;;1.50;1.08;;;12.60;99.90;;;;;;5051657;28;20048;-42
2023/04/25 01:05:43;;;;;;;2.10;1.30;;;12.60;99.90;;;;;;5051162;28;20055;-43
2023/04/25 01:08:08;;;;;;;1.65;1.02;;;12.60;99.90;;;;;;5052182;28;20023;-43
2023/04/25 01:10:34;;;;;;;3.03;1.30;;;12.60;99.90;;;;;;5051922;28;20029;-43
2023/04/25 01:13:00;;;;;;;4.13;1.30;;;12.60;99.90;;;;;;5052560;28;20103;-42
2023/04/25 01:15:26;;;;;;;1.63;1.10;;;12.60;99.90;;;;;;5052504;28;20083;-45
2023/04/25 01:17:52;;;;;;;2.80;1.00;;;12.60;99.90;;;;;;5050772;28;20028;-40
2023/04/25 01:20:22;;;;;;;2.63;0.98;;;12.60;99.90;;;;;;5051393;28;20017;-44
2023/04/25 01:22:49;;;;;;;2.25;1.20;;;12.60;99.90;;;;;;5053471;28;20459;-42
2023/04/25 01:25:15;;;;;;;2.38;1.75;;;12.60;99.90;;;;;;5051137;28;20396;-43
2023/04/25 01:27:40;;;;;;;2.00;1.20;;;12.60;99.90;;;;;;5051343;28;20028;-43
2023/04/25 01:30:07;;;;;;;1.48;0.90;;;12.50;99.90;;;;;;5051554;28;20061;-43
2023/04/25 01:32:39;;;;;;;2.92;1.27;;;12.50;99.90;;;;;;5052358;28;20033;-43
2023/04/25 01:35:09;;;;;;;3.83;1.40;;;12.50;99.90;;;;;;5051065;28;20554;-40
2023/04/25 01:37:42;;;;;;;3.33;1.08;;;12.60;99.90;;;;;;5051706;28;20106;-43
2023/04/25 01:40:10;;;;;;;3.50;1.30;;;12.50;99.90;;;;;;5051928;28;20491;-43
2023/04/25 01:42:39;;;;;;;3.22;1.10;;;12.50;99.90;;;;;;5051370;28;20056;-43
2023/04/25 01:45:06;;;;;;;2.80;1.15;;;12.50;99.90;;;;;;5055525;28;20021;-37
2023/04/25 01:47:32;;;;;;;2.40;1.30;;;12.60;99.90;;;;;;5054810;28;20021;-43
2023/04/25 01:49:57;;;;;;;1.83;1.02;;;12.50;99.90;;;;;;5054798;28;20027;-39
2023/04/25 01:52:23;;;;;;;1.70;1.17;;;12.50;99.90;;;;;;5056617;28;20056;-44
2023/04/25 01:54:50;;;;;;;1.70;1.13;;;12.50;99.90;;;;;;5056221;28;20479;-43
2023/04/25 01:57:16;;;;;;;3.33;1.20;;;12.50;99.90;;;;;;5054820;28;20578;-39
2023/04/25 01:59:43;;;;;;;1.73;0.90;;;12.50;99.90;;;;;;5054570;28;20119;-43
2023/04/25 02:02:08;;;;;;;1.33;0.95;;;12.50;99.90;;;;;;5055347;28;20035;-43
2023/04/25 02:04:34;;;;;;;2.45;1.25;;;12.50;99.90;;;;;;5055500;28;20430;-40
2023/04/25 02:07:00;;;;;;;2.33;1.10;;;12.50;99.90;;;;;;5054688;28;20432;-43
2023/04/25 02:09:25;;;;;;;1.65;0.80;;;12.50;99.90;;;;;;5055720;28;20104;-43
2023/04/25 02:11:52;;;;;;;1.63;1.10;;;12.50;99.90;;;;;;5054991;28;20056;-42
2023/04/25 02:14:18;;;;;;;2.65;1.10;;;12.50;99.90;;;;;;5055472;28;20029;-41
2023/04/25 02:16:44;;;;;;;2.83;1.10;;;12.50;99.90;;;;;;5054669;28;20029;-43
2023/04/25 02:19:10;;;;;;;2.28;1.20;;;12.50;99.90;;;;;;5056519;28;20025;-43
2023/04/25 02:21:36;;;;;;;2.60;1.20;;;12.50;99.90;;;;;;5054306;28;20025;-43
2023/04/25 02:24:02;;;;;;;2.00;0.95;;;12.50;99.90;;;;;;5055694;28;20142;-43
2023/04/25 02:26:28;;;;;;;1.17;0.85;;;12.50;99.90;;;;;;5055499;28;20558;-43
2023/04/25 02:28:54;;;;;;;2.10;1.30;;;12.50;99.90;;;;;;5055041;28;20096;-43
2023/04/25 02:31:20;;;;;;;3.88;1.10;;;12.40;99.90;;;;;;5055657;28;20491;-43
2023/04/25 02:33:46;;;;;;;2.00;1.10;;;12.40;99.90;;;;;;5054440;28;20025;-44
2023/04/25 02:36:12;;;;;;;1.40;0.98;;;12.40;99.90;;;;;;5053471;28;20048;-42
2023/04/25 02:38:38;;;;;;;2.42;1.17;;;12.40;99.90;;;;;;5054097;28;20556;-45
2023/04/25 02:41:03;;;;;;;1.75;1.00;;;12.40;99.90;;;;;;5054132;28;20124;-41
2023/04/25 02:43:29;;;;;;;1.98;1.20;;;12.40;99.90;;;;;;5053936;28;20525;-40
2023/04/25 02:45:55;;;;;;;2.15;1.08;;;12.40;99.90;;;;;;5053464;28;20029;-44
2023/04/25 02:48:20;;;;;;;2.17;1.00;;;12.40;99.90;;;;;;5054617;28;20479;-43
2023/04/25 02:50:46;;;;;;;3.15;1.20;;;12.40;99.90;;;;;;5054187;28;20028;-39
2023/04/25 02:53:12;;;;;;;2.17;1.20;;;12.40;99.90;;;;;;5055828;28;20033;-41
2023/04/25 02:55:37;;;;;;;2.17;0.98;;;12.40;99.90;;;;;;5054040;28;20487;-40
2023/04/25 02:58:03;;;;;;;1.40;1.02;;;12.40;99.90;;;;;;5055296;28;20056;-44
2023/04/25 03:00:29;;;;;;;2.05;1.00;;;12.40;99.90;;;;;;5053466;28;20021;-44
2023/04/25 03:02:55;;;;;;;1.58;1.08;;;12.40;99.90;;;;;;5054840;28;20037;-42
2023/04/25 03:05:21;;;;;;;1.85;1.30;;;12.40;99.90;;;;;;5054050;28;20021;-43
2023/04/25 03:07:46;;;;;;;2.97;1.15;;;12.40;99.90;;;;;;5053628;28;20028;-45
2023/04/25 03:10:12;;;;;;;3.22;1.10;;;12.40;99.90;;;;;;5053319;28;20049;-43
2023/04/25 03:12:38;;;;;;;1.10;0.85;;;12.40;99.90;;;;;;5054077;28;20182;-43
2023/04/25 03:15:04;;;;;;;2.17;1.00;;;12.40;99.90;;;;;;5053651;28;20033;-43
2023/04/25 03:17:30;;;;;;;5.65;1.02;;;12.40;99.90;;;;;;5052777;28;20040;-43
2023/04/25 03:19:55;;;;;;;2.33;1.20;;;12.30;99.90;;;;;;5053196;28;20483;-43
2023/04/25 03:22:22;;;;;;;3.13;1.13;;;12.40;99.90;;;;;;5053078;28;20025;-43
2023/04/25 03:24:47;;;;;;;4.20;1.05;;;12.40;99.90;;;;;;5053851;28;20104;-40
2023/04/25 03:27:13;;;;;;;1.70;1.00;;;12.30;99.90;;;;;;5052921;28;20554;-43
2023/04/25 03:29:40;;;;;;;1.92;0.90;;;12.30;99.90;;;;;;5052773;28;20028;-42
2023/04/25 03:32:06;;;;;;;1.40;1.13;;;12.30;99.90;;;;;;5053015;28;20043;-43
2023/04/25 03:34:31;;;;;;;2.55;1.10;;;12.30;99.90;;;;;;5053257;28;20480;-43
2023/04/25 03:36:57;;;;;;;5.53;1.30;;;12.30;99.90;;;;;;5052465;28;20032;-41
2023/04/25 03:39:22;;;;;;;2.10;1.20;;;12.30;99.90;;;;;;5053240;28;20025;-43
2023/04/25 03:41:48;;;;;;;2.72;1.23;;;12.30;99.90;;;;;;5052650;28;20495;-45
2023/04/25 03:44:14;;;;;;;2.20;1.20;;;12.30;99.90;;;;;;5052653;28;20112;-42
2023/04/25 03:46:40;;;;;;;3.33;1.20;;;12.30;99.90;;;;;;5052212;28;20053;-42
2023/04/25 03:49:05;;;;;;;2.00;1.25;;;12.30;99.90;;;;;;5052934;28;20067;-43
2023/04/25 03:51:31;;;;;;;2.75;1.30;;;12.30;99.90;;;;;;5052626;28;20506;-41
2023/04/25 03:53:56;;;;;;;6.22;1.33;;;12.30;99.90;;;;;;5052594;28;20021;-45
2023/04/25 03:56:22;;;;;;;1.45;1.08;;;12.30;99.90;;;;;;5051928;28;20099;-40
2023/04/25 03:58:48;;;;;;;3.20;1.42;;;12.30;99.90;;;;;;5052779;28;20391;-43
2023/04/25 04:01:13;;;;;;;1.95;1.17;;;12.30;99.90;;;;;;5052583;28;20043;-43
2023/04/25 04:03:39;;;;;;;1.98;1.20;;;12.30;99.90;;;;;;5052598;28;20116;-39
2023/04/25 04:06:06;;;;;;;1.92;1.10;;;12.30;99.90;;;;;;5053383;28;20063;-43
2023/04/25 04:08:32;;;;;;;2.30;1.42;;;12.20;99.90;;;;;;5052790;28;20052;-44
2023/04/25 04:10:58;;;;;;;1.85;1.17;;;12.20;99.90;;;;;;5054052;28;20040;-41
2023/04/25 04:13:31;;;;;;;19.73;2.53;;;12.20;99.90;;;;;;5053739;28;20024;-42
2023/04/25 04:15:57;;;;;;;4.60;1.58;;;12.30;99.90;;;;;;5052816;28;20028;-43
2023/04/25 04:18:23;;;;;;;2.42;1.40;;;12.30;99.90;;;;;;5053267;28;20029;-39
2023/04/25 04:20:49;;;;;;;3.75;1.55;;;12.20;99.90;;;;;;5052383;28;20035;-43
2023/04/25 04:23:15;;;;;;;7.13;1.58;;;12.20;99.90;;;;;;5054535;28;20383;-43
2023/04/25 04:25:41;;;;;;;4.53;1.40;;;12.20;99.90;;;;;;5051452;28;20028;-40
2023/04/25 04:28:07;;;;;;;3.90;1.42;;;12.30;99.90;;;;;;5052814;28;20016;-43
2023/04/25 04:30:36;;;;;;;3.40;1.50;;;12.20;99.90;;;;;;5054010;28;20028;-42
2023/04/25 04:33:01;;;;;;;5.32;1.80;;;12.20;99.90;;;;;;5054474;28;20041;-40
2023/04/25 04:35:27;;;;;;;3.22;1.70;;;12.30;99.90;;;;;;5052327;28;20151;-43
2023/04/25 04:37:54;;;;;;;4.95;1.50;;;12.20;99.90;;;;;;5052312;28;20086;-43
2023/04/25 04:40:21;;;;;;;2.28;1.48;;;12.30;99.90;;;;;;5051856;28;20363;-45
2023/04/25 04:42:47;;;;;;;3.92;1.50;;;12.20;99.90;;;;;;5053351;28;20056;-43
2023/04/25 04:45:14;;;;;;;4.25;2.05;;;12.20;99.90;;;;;;5053756;28;20021;-43
2023/04/25 04:47:40;;;;;;;4.18;2.00;;;12.20;99.90;;;;;;5053084;28;20032;-37
2023/04/25 04:50:10;;;;;;;4.50;2.00;;;12.20;99.90;;;;;;5052625;28;20056;-41
2023/04/25 04:52:36;;;;;;;5.45;1.92;;;12.20;99.90;;;;;;5051965;28;20032;-42
2023/04/25 04:55:03;;;;;;;4.90;1.67;;;12.20;99.90;;;;;;5052850;28;20452;-43
2023/04/25 04:57:29;;;;;;;4.45;1.65;;;12.20;99.90;;;;;;5051212;28;20057;-44
2023/04/25 04:59:55;;;;;;;5.68;1.25;;;12.20;99.90;;;;;;5051374;28;20064;-45
2023/04/25 05:02:21;;;;;;;3.20;1.63;;;12.20;99.90;;;;;;5052607;28;20426;-45
2023/04/25 05:04:46;;;;;;;4.72;1.60;;;12.20;99.90;;;;;;5053012;28;20118;-43
2023/04/25 05:07:12;;;;;;;3.20;1.60;;;12.20;99.90;;;;;;5051330;28;20467;-42
2023/04/25 05:09:39;;;;;;;3.88;1.75;;;12.20;99.90;;;;;;5052825;28;20021;-43
2023/04/25 05:12:05;;;;;;;5.10;1.70;;;12.20;99.90;;;;;;5051468;28;20045;-43
2023/04/25 05:14:31;;;;;;;4.03;1.27;;;12.20;99.90;;;;;;5052055;28;20025;-43
2023/04/25 05:16:58;;;;;;;2.90;1.50;;;12.20;99.90;;;;;;5052571;28;20037;-42
2023/04/25 05:19:24;;;;;;;2.28;1.50;;;12.20;99.90;;;;;;5049906;28;20021;-44
2023/04/25 05:21:49;;;;;;;4.20;1.58;;;12.20;99.90;;;;;;5052797;28;20025;-40
2023/04/25 05:24:15;;;;;;;2.58;1.88;;;12.20;99.90;;;;;;5052281;28;20031;-44
2023/04/25 05:26:41;;;;;;;4.72;1.67;;;12.20;99.90;;;;;;5053215;28;20057;-45
2023/04/25 05:29:07;;;;;;;3.85;1.70;;;12.20;99.90;;;;;;5053104;28;20078;-43
2023/04/25 05:31:33;;;;;;;3.30;1.80;;;12.20;99.90;;;;;;5052449;28;20066;-43
2023/04/25 05:33:58;;;;;;;3.88;1.42;;;12.20;99.90;;;;;;5052279;28;20033;-45
2023/04/25 05:36:24;;;;;;;2.40;1.50;;;12.20;99.90;;;;;;5051676;28;20360;-43
2023/04/25 05:38:50;;;;;;;4.70;1.23;;;12.20;99.90;;;;;;5052386;28;20032;-43
2023/04/25 05:41:16;;;;;;;3.92;1.70;;;12.20;99.90;;;;;;5053006;28;20021;-43
2023/04/25 05:43:46;;;;;;;4.70;1.45;;;12.20;99.90;;;;;;5052751;28;20487;-45
2023/04/25 05:46:12;;;;;;;3.88;1.50;;;12.20;99.90;;;;;;5052981;28;20395;-45
2023/04/25 05:48:39;;;;;;;4.53;1.42;;;12.20;99.90;;;;;;5052257;28;20083;-44
2023/04/25 05:51:05;;;;;;;2.70;1.40;;;12.20;99.90;;;;;;5050919;28;20487;-45
2023/04/25 05:53:33;;;;;;;5.22;1.70;;;12.20;99.90;;;;;;5051027;28;20071;-43
2023/04/25 05:55:59;;;;;;;2.95;1.63;;;12.20;99.90;;;;;;5051053;28;20031;-41
2023/04/25 05:58:24;;;;;;;2.97;1.60;;;12.20;99.90;;;;;;5050003;28;20029;-43
2023/04/25 06:00:50;;;;;;;4.35;1.55;;;12.20;99.90;;;;;;5050621;28;20387;-43
2023/04/25 06:03:16;;;;;;;3.85;1.50;;;12.20;99.90;;;;;;5050925;28;20040;-43
2023/04/25 06:05:42;;;;;;;2.72;1.42;;;12.20;99.90;;;;;;5050473;28;20021;-43
2023/04/25 06:08:08;;;;;;;3.22;1.38;;;12.20;99.90;;;;;;5050251;28;20383;-43
2023/04/25 06:10:34;;;;;;;3.97;1.60;;;12.20;99.90;;;;;;5050806;28;20028;-43
2023/04/25 06:12:59;;;;;;;5.78;2.10;;;12.20;99.90;;;;;;5051206;28;20340;-43
2023/04/25 06:15:26;;;;;;;4.88;1.40;;;12.20;99.90;;;;;;5050435;28;20469;-43
2023/04/25 06:17:52;;;;;;;2.72;1.45;;;12.20;99.90;;;;;;5050161;28;20096;-40
2023/04/25 06:20:18;;;;;;;3.28;1.70;;;12.20;99.90;;;;;;5050749;28;20029;-45
2023/04/25 06:22:43;;;;;;;3.42;1.63;;;12.20;99.90;;;;;;5050655;28;20040;-41
2023/04/25 06:25:09;;;;;;;4.60;1.63;;;12.30;99.90;;;;;;5050682;28;20033;-43
2023/04/25 06:27:34;;;;;;;3.05;1.40;;;12.30;99.90;;;;;;5049969;28;20100;-43
2023/04/25 06:30:00;;;;;;;3.85;1.60;;;12.30;99.90;;;;;;5052091;28;20443;-40
2023/04/25 06:32:27;;;;;;;4.90;1.67;;;12.20;99.90;;;;;;5054331;28;20102;-43
2023/04/25 06:34:53;;;;;;;2.95;1.60;;;12.30;99.90;;;;;;5054284;28;20025;-43
2023/04/25 06:37:18;;;;;;;3.60;1.40;;;12.30;99.90;;;;;;5053461;28;20021;-43
2023/04/25 06:39:44;;;;;;;1.90;1.35;;;12.30;99.90;;;;;;5054005;28;20024;-40
2023/04/25 06:42:10;;;;;;;2.00;1.40;;;12.30;99.90;;;;;;5053839;28;20387;-45
2023/04/25 06:44:36;;;;;;;4.32;1.63;;;12.30;99.90;;;;;;5053895;28;20383;-39
2023/04/25 06:47:01;;;;;;;7.43;1.50;;;12.30;99.90;;;;;;5053838;28;20518;-42
2023/04/25 06:49:27;;;;;;;4.32;1.70;;;12.30;99.90;;;;;;5053797;28;20033;-41
2023/04/25 06:51:53;;;;;;;4.68;1.83;;;12.30;99.90;;;;;;5054564;28;20071;-43
2023/04/25 06:54:18;;;;;;;3.85;1.90;;;12.30;99.90;;;;;;5054204;28;20112;-43
2023/04/25 06:56:44;;;;;;;2.45;1.63;;;12.30;99.90;;;;;;5054200;28;20107;-43
2023/04/25 06:59:09;;;;;;;4.20;2.05;;;12.30;99.90;;;;;;5054250;28;20149;-39
2023/04/25 07:01:35;;;;;;;3.05;1.75;;;12.30;99.90;;;;;;5054600;28;20370;-43
2023/04/25 07:04:01;;;;;;;3.35;1.70;;;12.30;99.90;;;;;;5054405;28;20025;-43
2023/04/25 07:06:27;;;;;;;3.13;1.67;;;12.30;99.90;;;;;;5054046;28;20102;-43
2023/04/25 07:08:55;;;;;;;4.00;1.60;;;12.30;99.90;;;;;;5054985;28;20032;-42
2023/04/25 07:11:21;;;;;;;2.72;1.50;;;12.30;99.90;;;;;;5055157;28;20058;-43
2023/04/25 07:13:46;;;;;;;5.00;2.00;;;12.40;99.90;;;;;;5055536;28;20449;-43
2023/04/25 07:16:12;;;;;;;4.88;1.85;;;12.40;99.90;;;;;;5054757;28;20422;-38
2023/04/25 07:18:38;;;;;;;3.60;1.70;;;12.40;99.90;;;;;;5055309;28;20061;-40
2023/04/25 07:21:04;;;;;;;3.80;2.10;;;12.40;99.90;;;;;;5054406;28;20033;-40
2023/04/25 07:23:32;;;;;;;2.28;1.52;;;12.40;99.90;;;;;;5053093;28;20024;-44
2023/04/25 07:25:58;;;;;;;3.55;2.10;;;12.40;99.90;;;;;;5054298;28;20033;-42
2023/04/25 07:28:23;;;;;;;4.03;2.03;;;12.40;99.90;;;;;;5054715;28;20067;-44
2023/04/25 07:30:49;;;;;;;1.83;1.50;;;12.40;99.90;;;;;;5054467;28;20037;-44
2023/04/25 07:33:14;;;;;;;3.85;1.55;;;12.40;99.90;;;;;;5053700;28;20479;-43
2023/04/25 07:35:40;;;;;;;3.63;1.70;;;12.40;99.90;;;;;;5053635;28;20017;-43
2023/04/25 07:38:06;;;;;;;3.22;1.65;;;12.40;99.90;;;;;;5052500;28;20025;-41
2023/04/25 07:40:32;;;;;;;2.90;1.77;;;12.40;99.90;;;;;;5052604;28;20091;-43
2023/04/25 07:42:57;;;;;;;3.95;1.90;;;12.40;99.90;;;;;;5053470;28;20486;-42
2023/04/25 07:45:24;;;;;;;3.58;1.80;;;12.40;99.90;;;;;;5053951;28;20021;-43
2023/04/25 07:47:49;;;;;;;2.28;1.67;;;12.40;99.90;;;;;;5052580;28;20028;-43
2023/04/25 07:50:15;;;;;;;3.40;1.90;;;12.40;99.90;;;;;;5052785;28;20021;-43
2023/04/25 07:52:41;;;;;;;3.30;1.90;;;12.40;99.90;;;;;;5052458;28;20040;-43
2023/04/25 07:55:07;;;;;;;3.20;1.90;;;12.20;99.90;;;;;;5052530;28;20096;-42
2023/04/25 07:57:32;;;;;;;4.03;2.13;;;12.20;99.90;;;;;;5051985;28;20503;-44
2023/04/25 07:59:58;;;;;;;3.97;2.00;;;12.20;99.90;;;;;;5054126;28;20033;-43
2023/04/25 08:02:25;;;;;;;7.05;2.22;;;12.20;99.90;;;;;;5053817;28;20029;-43
2023/04/25 08:04:51;;;;;;;2.45;2.03;;;12.20;99.90;;;;;;5052536;28;20040;-43
2023/04/25 08:07:17;;;;;;;3.10;2.10;;;12.20;99.90;;;;;;5053328;28;20021;-45
2023/04/25 08:09:42;;;;;;;4.82;2.30;;;12.10;99.90;;;;;;5055002;28;20056;-43
2023/04/25 08:12:08;;;;;;;6.07;2.33;;;12.10;99.90;;;;;;5054225;28;20036;-43
2023/04/25 08:14:36;;;;;;;3.85;2.55;;;12.20;99.90;;;;;;5054561;28;20036;-45
2023/04/25 08:17:03;;;;;;;3.08;2.08;;;12.20;99.90;;;;;;5053491;28;20020;-41
2023/04/25 08:19:30;;;;;;;2.92;2.03;;;12.20;99.90;;;;;;5051895;28;20379;-44
2023/04/25 08:21:56;;;;;;;3.25;2.05;;;12.20;99.90;;;;;;5054193;28;20017;-43
2023/04/25 08:24:22;;;;;;;4.60;2.63;;;12.20;99.90;;;;;;5053643;28;20028;-38
2023/04/25 08:26:48;;;;;;;3.58;2.17;;;12.20;99.90;;;;;;5053495;28;20075;-43
2023/04/25 08:29:14;;;;;;;3.83;2.22;;;12.20;99.90;;;;;;5053791;28;20024;-40
2023/04/25 08:31:40;;;;;;;4.63;2.45;;;12.20;99.90;;;;;;5052841;28;20032;-40
2023/04/25 08:34:06;;;;;;;3.53;2.17;;;12.20;99.90;;;;;;5052946;28;20036;-43
2023/04/25 08:36:32;;;;;;;2.95;2.10;;;12.20;99.90;;;;;;5052727;28;20021;-45
2023/04/25 08:38:58;;;;;;;2.95;2.00;;;12.20;99.90;;;;;;5051732;28;20028;-44
2023/04/25 08:41:25;;;;;;;3.08;2.20;;;12.20;99.90;;;;;;5052427;28;20498;-44
2023/04/25 08:43:53;;;;;;;4.55;2.17;;;12.20;99.90;;;;;;5053270;28;20075;-44
2023/04/25 08:46:19;;;;;;;3.28;2.58;;;12.20;99.90;;;;;;5053062;28;20029;-43
2023/04/25 08:48:46;;;;;;;3.85;2.10;;;12.20;99.90;;;;;;5052750;28;20024;-44
2023/04/25 08:51:32;;;;;;;3.35;2.08;;;12.20;99.90;;;;;;5051910;28;20048;-45
2023/04/25 08:54:12;;;;;;;3.20;2.22;;;12.20;99.90;;;;;;5053274;28;20032;-44
2023/04/25 08:56:45;;;;;;;4.93;2.17;;;12.20;99.90;;;;;;5052535;28;20146;-43
2023/04/25 08:59:11;;;;;;;4.35;2.50;;;12.20;99.90;;;;;;5052712;28;20028;-44
2023/04/25 09:01:37;;;;;;;7.07;2.55;;;12.20;99.90;;;;;;5052709;28;20029;-44
2023/04/25 09:04:03;;;;;;;3.28;2.25;;;12.20;99.90;;;;;;5052844;28;20029;-43
2023/04/25 09:06:30;;;;;;;2.67;1.90;;;12.20;99.90;;;;;;5052696;28;20025;-43
2023/04/25 09:09:07;;;;;;;3.28;2.00;;;12.20;99.90;;;;;;5053144;28;20018;-44
2023/04/25 09:11:33;;;;;;;4.03;1.80;;;12.20;99.90;;;;;;5052187;28;20055;-43
2023/04/25 09:14:22;;;;;;;2.60;1.50;;;12.20;99.90;;;;;;5052543;28;20067;-40
2023/04/25 09:17:02;;;;;;;2.25;1.50;;;12.20;99.90;;;;;;5051379;28;20029;-43
2023/04/25 09:19:31;;;;;;;3.65;1.85;;;12.20;99.90;;;;;;5052763;28;20063;-42
2023/04/25 09:21:58;;;;;;;2.80;2.00;;;12.20;99.90;;;;;;5051022;28;20052;-46
2023/04/25 09:24:53;;;;;;;4.05;1.73;;;12.20;99.90;;;;;;5051766;28;20090;-43
2023/04/25 09:27:22;;;;;;;2.58;1.52;;;12.20;99.90;;;;;;5047517;28;20029;-40
2023/04/25 09:29:48;;;;;;;3.05;1.58;;;12.20;99.90;;;;;;5051986;28;20554;-45
2023/04/25 09:32:15;;;;;;;2.25;1.58;;;12.20;99.90;;;;;;5051457;28;20124;-44
2023/04/25 09:34:44;;;;;;;2.90;1.30;;;12.20;99.90;;;;;;5053529;28;20051;-43
2023/04/25 09:37:10;;;;;;;1.27;0.50;;;12.20;99.90;;;;;;5050936;28;20021;-40
2023/04/25 09:39:39;;;;;;;0.50;0.50;;;12.10;99.90;;;;;;5049561;28;20616;-40
2023/04/25 09:42:05;;;;;;;0.57;0.50;;;12.00;99.90;;;;;;5050750;28;20028;-42
2023/04/25 09:44:31;;;;;;;0.82;0.52;;;12.00;99.90;;;;;;5052181;28;20407;-40
2023/04/25 09:46:58;;;;;;;1.30;0.70;;;11.90;99.90;;;;;;5051112;28;20086;-44
2023/04/25 09:49:27;;;;;;;1.88;0.60;;;11.90;99.90;;;;;;5052170;28;20479;-43
2023/04/25 09:52:00;;;;;;;1.23;0.73;;;11.90;99.90;;;;;;5052008;28;20029;-41
2023/04/25 09:54:26;;;;;;;0.73;0.60;;;11.90;99.90;;;;;;5052793;28;20021;-43
2023/04/25 09:56:53;;;;;;;0.80;0.52;;;11.90;99.90;;;;;;5050625;28;20029;-42
2023/04/25 09:59:22;;;;;;;1.65;0.68;;;11.90;99.90;;;;;;5052770;28;20056;-44
2023/04/25 10:01:50;;;;;;;1.42;0.60;;;11.90;99.90;;;;;;5052226;28;20076;-39
2023/04/25 10:04:22;;;;;;;1.23;0.80;;;11.90;99.90;;;;;;5052668;28;20025;-41
2023/04/25 10:06:50;;;;;;;0.85;0.55;;;11.90;99.90;;;;;;5055502;28;20090;-42
2023/04/25 10:09:17;;;;;;;0.88;0.60;;;12.00;99.90;;;;;;5056692;28;20383;-39
2023/04/25 10:11:50;;;;;;;1.05;0.90;;;11.90;99.90;;;;;;5054624;28;20025;-41
2023/04/25 10:14:18;;;;;;;0.85;0.50;;;11.90;99.90;;;;;;5054542;28;20021;-44
2023/04/25 10:16:45;;;;;;;1.73;0.82;;;11.90;99.90;;;;;;5053823;28;20072;-41
2023/04/25 10:19:11;;;;;;;1.45;0.68;;;11.90;99.90;;;;;;5055589;28;20364;-41
2023/04/25 10:21:44;;;;;;;1.02;0.60;;;12.00;99.90;;;;;;5056040;28;20031;-44
2023/04/25 10:24:10;;;;;;;2.15;0.50;;;12.00;99.90;;;;;;5055413;28;20469;-42
2023/04/25 10:26:36;;;;;;;1.17;0.60;;;11.90;99.90;;;;;;5055378;28;20491;-39
2023/04/25 10:29:03;;;;;;;4.82;0.57;;;11.80;99.90;;;;;;5055939;28;20071;-42
2023/04/25 10:31:32;;;;;;;0.75;0.38;;;11.80;99.90;;;;;;5055634;28;20040;-42
2023/04/25 10:33:59;;;;;;;0.90;0.50;;;11.80;99.90;;;;;;5054774;28;20028;-37
2023/04/25 10:36:27;;;;;;;1.27;0.50;;;11.80;99.90;;;;;;5054740;28;20044;-43
2023/04/25 10:38:54;;;;;;;1.40;0.57;;;11.80;99.90;;;;;;5055183;28;20028;-44
2023/04/25 10:41:21;;;;;;;0.55;0.38;;;11.80;99.90;;;;;;5054938;28;20132;-41
2023/04/25 10:43:47;;;;;;;1.77;0.40;;;11.80;99.90;;;;;;5054826;28;20021;-43
2023/04/25 10:46:22;;;;;;;0.73;0.47;;;11.80;99.90;;;;;;5054552;28;20418;-43
2023/04/25 10:48:52;;;;;;;1.23;0.50;;;11.90;99.90;;;;;;5055337;28;20099;-42
2023/04/25 10:51:18;;;;;;;0.80;0.47;;;11.90;99.90;;;;;;5055040;28;20032;-42
2023/04/25 10:53:45;;;;;;;0.50;0.40;;;11.90;99.90;;;;;;5054624;28;20068;-43
2023/04/25 10:56:27;;;;;;;1.05;0.55;;;11.90;99.90;;;;;;5053701;28;20043;-43
2023/04/25 10:59:18;;;;;;;0.80;0.70;;;12.00;99.90;;;;;;5054901;28;20460;-43
2023/04/25 11:01:46;;;;;;;0.77;0.50;;;11.90;99.90;;;;;;5053786;28;20445;-43
2023/04/25 11:04:33;;;;;;;0.82;0.52;;;12.00;99.90;;;;;;5054396;28;20528;-41
2023/04/25 11:07:26;;;;;;;0.85;0.60;;;11.90;99.90;;;;;;5053484;28;20490;-43
2023/04/25 11:09:52;;;;;;;0.80;0.57;;;12.00;99.90;;;;;;5053594;28;20079;-42
2023/04/25 11:12:17;;;;;;;0.47;0.32;;;12.00;99.90;;;;;;5053548;28;20041;-44
2023/04/25 11:14:43;;;;;;;0.57;0.40;;;12.00;99.90;;;;;;5053663;28;20025;-43
2023/04/25 11:17:10;;;;;;;1.10;0.57;;;12.00;99.90;;;;;;5051583;28;20021;-42
2023/04/25 11:19:36;;;;;;;0.60;0.40;;;12.00;99.90;;;;;;5052768;28;20029;-43
2023/04/25 11:22:03;;;;;;;0.95;0.63;;;12.00;99.90;;;;;;5053358;28;20075;-41
2023/04/25 11:24:36;;;;;;;1.02;0.50;;;12.10;99.90;;;;;;5054217;28;20112;-42
2023/04/25 11:27:03;;;;;;;1.05;0.60;;;12.10;99.90;;;;;;5054009;28;20052;-43
2023/04/25 11:29:33;;;;;;;1.70;0.68;;;12.10;99.90;;;;;;5053071;28;20549;-38
2023/04/25 11:32:00;;;;;;;1.65;0.50;;;12.10;99.90;;;;;;5055186;28;20047;-37
2023/04/25 11:34:30;;;;;;;1.17;0.63;;;12.10;99.90;;;;;;5054792;28;20023;-40
2023/04/25 11:36:56;;;;;;;0.85;0.52;;;12.10;99.90;;;;;;5054488;28;20053;-44
2023/04/25 11:39:23;;;;;;;1.88;0.60;;;12.10;99.90;;;;;;5054609;28;20064;-40
2023/04/25 11:41:49;;;;;;;0.80;0.80;;;12.10;99.90;;;;;;5055507;28;20466;-43
2023/04/25 11:44:19;;;;;;;0.98;0.73;;;12.10;99.90;;;;;;5054543;28;20021;-43
2023/04/25 11:46:45;;;;;;;1.13;0.80;;;12.10;99.90;;;;;;5053683;28;20047;-43
2023/04/25 11:49:11;;;;;;;1.42;1.10;;;12.10;99.90;;;;;;5053986;28;20536;-42
2023/04/25 11:51:46;;;;;;;1.10;1.00;;;12.10;99.90;;;;;;5054846;28;20044;-43
2023/04/25 11:54:11;;;;;;;;;;;12.10;99.90;;;;;;5054156;28;20047;-42
2023/04/25 11:56:41;;;;;;;1.30;0.90;;;12.10;99.90;;;;;;5053064;28;20267;-43
2023/04/25 11:59:06;;;;;;;2.67;1.27;;;12.10;99.90;;;;;;5052621;28;20111;-42
2023/04/25 12:01:37;;;;;;;1.50;1.10;;;12.10;99.90;;;;;;5052890;28;20100;-43
2023/04/25 12:04:15;;;;;;;0.93;0.85;;;12.10;99.90;;;;;;5052489;28;20025;-38
2023/04/25 12:06:43;;;;;;;3.10;1.30;;;12.10;99.90;;;;;;5052100;28;20017;-42
2023/04/25 12:09:11;;;;;;;1.95;1.30;;;12.10;99.90;;;;;;5052552;28;20475;-42
2023/04/25 12:11:44;;;;;;;1.40;1.20;;;12.10;99.90;;;;;;5052258;28;20549;-43
2023/04/25 12:14:10;;;;;;;1.70;1.37;;;12.10;99.90;;;;;;5052244;28;20035;-42
2023/04/25 12:16:43;;;;;;;2.00;1.50;;;12.10;99.90;;;;;;5051837;28;20637;-41
2023/04/25 12:19:09;;;;;;;1.98;1.40;;;12.10;99.90;;;;;;5053707;28;20028;-38
2023/04/25 12:21:35;;;;;;;2.00;1.50;;;12.10;99.90;;;;;;5054725;28;20382;-43
2023/04/25 12:24:22;;;;;;;4.30;1.38;;;12.10;99.90;;;;;;5053712;28;20021;-44
2023/04/25 12:26:47;;;;;;;1.88;1.38;;;12.10;99.90;;;;;;5052563;28;20029;-44
2023/04/25 12:29:21;;;;;;;2.80;1.42;;;12.10;99.90;;;;;;5053398;28;20434;-42
2023/04/25 12:31:47;;;;;;;1.30;1.15;;;12.10;99.90;;;;;;5053534;28;20021;-42
2023/04/25 12:34:13;;;;;;;3.03;1.17;;;12.10;99.90;;;;;;5051802;28;20032;-42
2023/04/25 12:36:39;;;;;;;2.60;1.60;;;12.10;99.90;;;;;;5051560;28;20100;-42
2023/04/25 12:39:05;;;;;;;2.05;1.40;;;12.10;99.90;;;;;;5052209;28;20025;-41
2023/04/25 12:41:30;;;;;;;1.92;1.48;;;12.10;99.90;;;;;;5053304;28;20036;-44
2023/04/25 12:43:56;;;;;;;1.45;1.30;;;12.10;99.90;;;;;;5052650;28;20422;-42
2023/04/25 12:46:22;;;;;;;1.38;1.25;;;12.10;99.90;;;;;;5051662;28;20494;-43
2023/04/25 12:48:48;;;;;;;1.65;1.30;;;12.10;99.90;;;;;;5051550;28;20116;-43